Řízení letového provozu České republiky
OPMET data - Ceska Republika Aktualizace: 20.01.2017 22:08:14  UTC
SIGMET / AIRMET - NIL
Warning / Vystraha - NIL
 
METAR / SPECI
METAR LKCV 202200Z 08001KT 3000 BR SKC M10/M11 Q1034 NOSIG=
METAR LKKB 202200Z 19003KT 060V210 2000 BR SCT025 M09/M09 Q1034 =
METAR LKKU NIL
METAR LKKV 202200Z 10003KT CAVOK M07/M14 Q1031 R29/////// RMK REG QNH 1028=
METAR LKLN 202200Z AUTO 21002KT 1700 BR NCD M12/M13 Q1033=
METAR LKMT 202200Z 23008KT 9999 BKN023 M03/M07 Q1034 R04/810195 NOSIG RMK REG QNH 1028=
METAR LKNA 202200Z 36006KT CAVOK M07/M12 Q1032=
METAR LKPD 202200Z VRB01KT 4000 BR NSC M11/M13 Q1034 =
METAR LKPR 202200Z 00000KT 3500 BR NSC M09/M11 Q1033 NOSIG RMK REG QNH 1028=
METAR LKTB 202200Z VRB01KT 5000 BR NSC M10/M12 Q1034 R27/31//95 NOSIG RMK REG QNH 1028=
METAR LKVO NIL
TAF
TAF LKCV 201700Z 2018/2118 VRB02KT 3000 BR SCT030      PROB30 TEMPO 2020/2108 0600 FZFG BKN003=
TAF AMD LKKB 201700Z 2018/2118 VRB02KT 1000 BR BKN030      TEMPO 2018/2108 0600 FZFG BKN002      PROB30 TEMPO 2018/2106 0400 FZFG OVC001      BECMG 2108/2110 2500 BR NSC=
TAF LKKU NIL
TAF LKKV 201700Z 2018/2200 VRB02KT CAVOK=
TAF LKLN NIL
TAF LKMT 201700Z 2018/2200 23008KT 7000 BKN036      TEMPO 2018/2115 SCT036      TEMPO 2103/2108 3000 BR      BECMG 2115/2118 VRB02KT SCT036=
TAF LKNA 201700Z 2018/2118 VRB02KT CAVOK      BECMG 2021/2023 2000 BR NSC      BECMG 2107/2109 CAVOK=
TAF LKPD 201700Z 2018/2118 VRB02KT 4000 BR NSC      TEMPO 2018/2100 BKN040      PROB30 TEMPO 2018/2100 7000 NSW      TEMPO 2100/2108 0500 FZFG VV003      BECMG 2106/2108 2000 BR SCT045=
TAF LKPR 201700Z 2018/2200 VRB02KT 4000 BR SCT036      TEMPO 2018/2100 7000      TEMPO 2018/2108 BKN036      TEMPO 2100/2108 2500 BR      BECMG 2108/2110 7000 NSC=
TAF LKTB 201700Z 2018/2200 VRB02KT 7000 SCT036      TEMPO 2100/2108 2500 BR NSC      PROB30 TEMPO 2102/2108 1200 BR NSC      BECMG 2121/2200 3000 BR SCT007=
TAF LKVO NIL